createdAt,value
2019-05-16T00:02:08.435Z,100750.13
2019-05-16T00:04:38.060Z,100743.91
2019-05-16T00:07:08.035Z,100738.50
2019-05-16T00:09:38.256Z,100742.54
2019-05-16T00:12:08.752Z,100740.38
2019-05-16T00:14:38.749Z,100737.94
2019-05-16T00:17:08.539Z,100736.07
2019-05-16T00:19:38.283Z,100734.97
2019-05-16T00:22:08.733Z,100726.58
2019-05-16T00:24:38.458Z,100721.17
2019-05-16T00:27:08.459Z,100723.81
2019-05-16T00:29:38.406Z,100717.59
2019-05-16T00:32:09.261Z,100712.48
2019-05-16T00:34:38.861Z,100711.63
2019-05-16T00:37:08.767Z,100709.77
2019-05-16T00:39:38.924Z,100705.16
2019-05-16T00:42:08.967Z,100706.50
2019-05-16T00:44:38.840Z,100704.32
2019-05-16T00:47:08.921Z,100701.89
2019-05-16T00:49:38.721Z,100695.70
2019-05-16T00:52:08.520Z,100691.37
2019-05-16T00:54:38.503Z,100686.23
2019-05-16T00:57:08.711Z,100676.28
2019-05-16T00:59:40.574Z,100677.64
2019-05-16T01:02:10.171Z,100670.38
2019-05-16T01:04:39.753Z,100666.08
2019-05-16T01:07:09.350Z,100663.91
2019-05-16T01:09:38.979Z,100663.09
2019-05-16T01:12:08.654Z,100657.17
2019-05-16T01:14:38.557Z,100657.68
2019-05-16T01:17:08.731Z,100655.50
2019-05-16T01:19:38.419Z,100649.55
2019-05-16T01:22:08.446Z,100653.07
2019-05-16T01:24:41.295Z,100650.12
2019-05-16T01:27:09.432Z,100650.90
2019-05-16T01:29:39.019Z,100644.69
2019-05-16T01:32:08.652Z,100639.56
2019-05-16T01:34:38.236Z,100639.56
2019-05-16T01:37:08.358Z,100643.07
2019-05-16T01:39:38.291Z,100637.37
2019-05-16T01:42:08.158Z,100634.88
2019-05-16T01:44:38.287Z,100637.83
2019-05-16T01:47:09.045Z,100631.59
2019-05-16T01:49:38.665Z,100633.92
2019-05-16T01:52:08.608Z,100627.40
2019-05-16T01:54:38.836Z,100627.89
2019-05-16T01:57:08.617Z,100621.42
2019-05-16T01:59:38.219Z,100627.12
2019-05-16T02:02:08.393Z,100624.19
2019-05-16T02:04:38.172Z,100618.02
2019-05-16T02:07:08.553Z,100611.30
2019-05-16T02:09:38.538Z,100609.95
2019-05-16T02:12:10.748Z,100605.61
2019-05-16T02:14:39.583Z,100607.47
2019-05-16T02:17:11.289Z,100604.78
2019-05-16T02:19:40.494Z,100604.27
2019-05-16T02:22:10.104Z,100600.27
2019-05-16T02:24:39.708Z,100593.81
2019-05-16T02:27:09.668Z,100591.62
2019-05-16T02:29:40.111Z,100596.19
2019-05-16T02:32:11.628Z,100590.61
2019-05-16T02:34:41.832Z,100592.73
2019-05-16T02:37:23.750Z,100586.77
2019-05-16T02:39:42.863Z,100588.61
2019-05-16T02:42:12.545Z,100584.23
2019-05-16T02:44:42.415Z,100592.82
2019-05-16T02:47:12.026Z,100590.58
2019-05-16T02:49:42.196Z,100586.77
2019-05-16T02:52:11.979Z,100584.09
2019-05-16T02:54:41.960Z,100578.91
2019-05-16T02:57:11.715Z,100573.33
2019-05-16T02:59:41.774Z,100574.09
2019-05-16T03:02:12.415Z,100570.52
2019-05-16T03:04:44.372Z,100565.39
2019-05-16T03:07:32.983Z,100565.95
2019-05-16T03:09:51.210Z,100575.63
2019-05-16T03:12:21.302Z,100562.42
2019-05-16T03:14:54.653Z,100563.77
2019-05-16T03:17:31.610Z,100562.09
2019-05-16T03:20:01.494Z,100560.98
2019-05-16T03:22:31.844Z,100558.00
2019-05-16T03:25:01.535Z,100554.20
2019-05-16T03:27:31.151Z,100542.36
2019-05-16T03:30:01.941Z,100545.30
2019-05-16T03:32:34.235Z,100540.17
2019-05-16T03:35:05.834Z,100533.17
2019-05-16T03:37:49.908Z,100530.18
2019-05-16T03:40:10.866Z,100528.74
2019-05-16T03:42:41.574Z,100517.98
2019-05-16T03:45:11.029Z,100516.03
2019-05-16T03:47:42.785Z,100519.16
2019-05-16T03:50:12.521Z,100516.72
2019-05-16T03:52:43.554Z,100517.22
2019-05-16T03:55:13.667Z,100513.69
2019-05-16T03:57:43.304Z,100512.08
2019-05-16T04:00:13.700Z,100510.67
2019-05-16T04:02:45.717Z,100506.62
2019-05-16T04:05:14.875Z,100502.34
2019-05-16T04:07:45.119Z,100496.45
2019-05-16T04:10:16.350Z,100492.11
2019-05-16T04:12:45.905Z,100491.08
2019-05-16T04:15:15.743Z,100483.53
2019-05-16T04:17:45.328Z,100494.53
2019-05-16T04:20:15.335Z,100491.83
2019-05-16T04:22:45.883Z,100489.64
2019-05-16T04:25:15.484Z,100488.00
2019-05-16T04:27:46.613Z,100485.05
2019-05-16T04:30:17.205Z,100486.11
2019-05-16T04:32:46.767Z,100486.95
2019-05-16T04:35:16.376Z,100486.11
2019-05-16T04:37:45.961Z,100482.86
2019-05-16T04:40:15.816Z,100476.95
2019-05-16T04:42:45.406Z,100475.00
2019-05-16T04:45:16.066Z,100475.50
2019-05-16T04:47:45.658Z,100472.05
2019-05-16T04:50:15.987Z,100472.69
2019-05-16T04:52:45.573Z,100461.44
2019-05-16T04:55:15.204Z,100466.22
2019-05-16T04:57:45.564Z,100464.08
2019-05-16T05:00:16.378Z,100465.41
2019-05-16T05:02:45.956Z,100461.38
2019-05-16T05:05:16.266Z,100457.36
2019-05-16T05:07:45.887Z,100445.86
2019-05-16T05:10:16.315Z,100455.02
2019-05-16T05:12:46.031Z,100449.10
2019-05-16T05:15:17.246Z,100452.55
2019-05-16T05:17:46.845Z,100454.73
2019-05-16T05:20:16.764Z,100455.16
2019-05-16T05:22:46.414Z,100456.09
2019-05-16T05:25:16.538Z,100452.75
2019-05-16T05:27:47.166Z,100455.48
2019-05-16T05:30:19.761Z,100452.61
2019-05-16T05:32:50.337Z,100449.22
2019-05-16T05:35:20.843Z,100449.03
2019-05-16T05:37:50.886Z,100448.28
2019-05-16T05:40:20.790Z,100444.25
2019-05-16T05:42:50.627Z,100444.52
2019-05-16T05:45:20.339Z,100443.17
2019-05-16T05:47:50.526Z,100445.09
2019-05-16T05:50:20.663Z,100440.28
2019-05-16T05:52:51.114Z,100443.30
2019-05-16T05:55:21.013Z,100443.34
2019-05-16T05:57:50.870Z,100444.25
2019-05-16T06:00:21.462Z,100438.44
2019-05-16T06:02:51.055Z,100433.20
2019-05-16T06:05:20.670Z,100434.54
2019-05-16T06:07:50.966Z,100433.14
2019-05-16T06:10:22.570Z,100428.59
2019-05-16T06:12:52.184Z,100434.42
2019-05-16T06:15:22.526Z,100433.85
2019-05-16T06:17:52.171Z,100433.33
2019-05-16T06:20:22.311Z,100437.42
2019-05-16T06:22:51.906Z,100435.30
2019-05-16T06:25:22.799Z,100432.11
2019-05-16T06:27:52.916Z,100423.74
2019-05-16T06:30:22.820Z,100425.73
2019-05-16T06:32:52.425Z,100420.97
2019-05-16T06:35:24.112Z,100414.02
2019-05-16T06:37:53.381Z,100421.11
2019-05-16T06:40:23.040Z,100413.64
2019-05-16T06:42:52.659Z,100409.66
2019-05-16T06:45:22.266Z,100405.63
2019-05-16T06:47:51.836Z,100397.66
2019-05-16T06:50:21.524Z,100400.91
2019-05-16T06:52:51.114Z,100392.02
2019-05-16T06:55:20.806Z,100396.05
2019-05-16T06:57:50.515Z,100388.27
2019-05-16T07:00:20.958Z,100381.84
2019-05-16T07:02:50.753Z,100376.73
2019-05-16T07:05:20.963Z,100377.32
2019-05-16T07:07:51.071Z,100375.47
2019-05-16T07:10:20.720Z,100380.32
2019-05-16T07:12:50.591Z,100377.88
2019-05-16T07:15:20.816Z,100377.32
2019-05-16T07:17:50.746Z,100374.07
2019-05-16T07:20:21.239Z,100369.53
2019-05-16T07:22:51.057Z,100373.58
2019-05-16T07:25:21.394Z,100372.77
2019-05-16T07:27:51.333Z,100372.22
2019-05-16T07:30:21.587Z,100373.55
2019-05-16T07:32:51.189Z,100370.58
2019-05-16T07:35:21.132Z,100367.91
2019-05-16T07:37:50.867Z,100363.84
2019-05-16T07:40:26.515Z,100360.09
2019-05-16T07:42:52.499Z,100360.92
2019-05-16T07:45:22.955Z,100367.65
2019-05-16T07:47:52.568Z,100363.08
2019-05-16T07:50:22.180Z,100363.34
2019-05-16T07:52:51.912Z,100359.32
2019-05-16T07:55:21.485Z,100359.03
2019-05-16T07:57:51.072Z,100355.52
2019-05-16T08:00:28.068Z,100357.97
2019-05-16T08:02:52.933Z,100355.27
2019-05-16T08:05:22.634Z,100356.35
2019-05-16T08:07:52.307Z,100352.83
2019-05-16T08:10:37.130Z,100346.92
2019-05-16T08:12:53.513Z,100346.11
2019-05-16T08:15:23.768Z,100336.14
2019-05-16T08:17:53.394Z,100336.94
2019-05-16T08:20:22.986Z,100329.69
2019-05-16T08:22:52.625Z,100337.51
2019-05-16T08:25:22.293Z,100336.14
2019-05-16T08:27:52.261Z,100334.52
2019-05-16T08:30:22.238Z,100328.87
2019-05-16T08:32:52.725Z,100330.22
2019-05-16T08:35:22.749Z,100333.98
2019-05-16T08:37:52.413Z,100339.38
2019-05-16T08:40:22.456Z,100339.38
2019-05-16T08:42:52.192Z,100348.00
2019-05-16T08:45:22.011Z,100344.77
2019-05-16T08:50:24.059Z,100346.39
2019-05-16T08:52:53.672Z,100337.77
2019-05-16T08:55:23.430Z,100335.87
2019-05-16T08:57:53.259Z,100340.45
2019-05-16T09:00:23.751Z,100339.88
2019-05-16T09:02:53.409Z,100331.20
2019-05-16T09:05:23.047Z,100329.80
2019-05-16T09:08:00.484Z,100318.94
2019-05-16T09:10:40.735Z,100348.54
2019-05-16T09:12:57.215Z,100331.79
2019-05-16T09:15:27.398Z,100330.20
2019-05-16T09:17:58.171Z,100329.19
2019-05-16T09:20:29.371Z,100321.11
2019-05-16T09:22:59.062Z,100314.68
2019-05-16T09:25:29.589Z,100320.55
2019-05-16T09:28:00.220Z,100310.31
2019-05-16T09:30:30.140Z,100308.65
2019-05-16T09:32:59.913Z,100308.31
2019-05-16T09:35:29.578Z,100296.52
2019-05-16T09:38:00.091Z,100296.68
2019-05-16T09:40:29.770Z,100289.62
2019-05-16T09:42:59.462Z,100289.16
2019-05-16T09:45:30.214Z,100283.08
2019-05-16T09:47:59.890Z,100289.64
2019-05-16T09:50:30.198Z,100289.44
2019-05-16T09:53:00.047Z,100291.65
2019-05-16T09:55:30.757Z,100293.08
2019-05-16T09:58:00.368Z,100293.08
2019-05-16T10:00:30.648Z,100285.05
2019-05-16T10:03:00.292Z,100281.07
2019-05-16T10:05:31.670Z,100278.77
2019-05-16T10:08:01.292Z,100273.07
2019-05-16T10:10:30.908Z,100269.87
2019-05-16T10:13:00.492Z,100275.49
2019-05-16T10:15:30.088Z,100283.44
2019-05-16T10:17:59.749Z,100275.44
2019-05-16T10:20:29.398Z,100265.26
2019-05-16T10:22:59.001Z,100264.67
2019-05-16T10:25:28.601Z,100271.61
2019-05-16T10:27:58.218Z,100265.26
2019-05-16T10:30:28.212Z,100263.50
2019-05-16T10:32:59.245Z,100266.10
2019-05-16T10:35:30.221Z,100265.37
2019-05-16T10:38:00.205Z,100267.45
2019-05-16T10:40:30.810Z,100267.27
2019-05-16T10:43:00.551Z,100261.75
2019-05-16T10:45:32.007Z,100258.94
2019-05-16T10:48:01.624Z,100257.08
2019-05-16T10:50:31.244Z,100262.45
2019-05-16T10:53:22.594Z,100260.29
2019-05-16T10:55:32.227Z,100259.50
2019-05-16T10:58:01.838Z,100259.81
2019-05-16T11:00:57.566Z,100261.83
2019-05-16T11:03:03.697Z,100263.20
2019-05-16T11:05:36.285Z,100261.41
2019-05-16T11:08:05.481Z,100261.40
2019-05-16T11:10:37.297Z,100256.05
2019-05-16T11:13:08.149Z,100257.17
2019-05-16T11:15:37.995Z,100254.48
2019-05-16T11:18:07.780Z,100248.58
2019-05-16T11:20:37.633Z,100246.16
2019-05-16T11:23:08.057Z,100251.32
2019-05-16T11:25:37.861Z,100251.61
2019-05-16T11:28:07.562Z,100248.34
2019-05-16T11:30:37.752Z,100245.36
2019-05-16T11:33:07.813Z,100245.02
2019-05-16T11:35:38.158Z,100249.86
2019-05-16T11:38:08.010Z,100245.02
2019-05-16T11:40:37.615Z,100242.89
2019-05-16T11:43:15.978Z,100241.55
2019-05-16T11:45:39.264Z,100236.14
2019-05-16T11:48:08.867Z,100234.94
2019-05-16T11:50:38.456Z,100230.61
2019-05-16T11:53:08.067Z,100232.19
2019-05-16T11:55:50.378Z,100227.13
2019-05-16T11:58:09.016Z,100223.75
2019-05-16T12:00:39.393Z,100210.55
2019-05-16T12:03:09.005Z,100211.73
2019-05-16T12:05:38.621Z,100211.38
2019-05-16T12:08:08.242Z,100214.85
2019-05-16T12:10:37.842Z,100215.30
2019-05-16T12:13:16.791Z,100214.73
2019-05-16T12:15:38.799Z,100202.30
2019-05-16T12:18:08.854Z,100212.02
2019-05-16T12:20:38.608Z,100217.19
2019-05-16T12:23:08.236Z,100213.09
2019-05-16T12:25:37.826Z,100208.91
2019-05-16T12:28:08.109Z,100206.70
2019-05-16T12:30:40.497Z,100198.86
2019-05-16T12:33:09.322Z,100200.46
2019-05-16T12:35:38.932Z,100193.41
2019-05-16T12:38:08.522Z,100199.67
2019-05-16T12:40:38.113Z,100203.55
2019-05-16T12:43:08.022Z,100199.55
2019-05-16T12:45:38.948Z,100211.48
2019-05-16T12:48:11.050Z,100208.29
2019-05-16T12:50:40.999Z,100206.06
2019-05-16T12:53:10.834Z,100206.70
2019-05-16T12:55:40.842Z,100207.63
2019-05-16T12:58:14.154Z,100208.38
2019-05-16T13:00:44.035Z,100207.80
2019-05-16T13:03:13.060Z,100205.03
2019-05-16T13:05:42.675Z,100206.21
2019-05-16T13:08:12.276Z,100202.34
2019-05-16T13:10:41.891Z,100198.45
2019-05-16T13:13:11.491Z,100196.86
2019-05-16T13:15:42.406Z,100194.75
2019-05-16T13:18:12.240Z,100191.75
2019-05-16T13:20:41.832Z,100189.92
2019-05-16T13:23:14.458Z,100193.41
2019-05-16T13:25:42.790Z,100190.73
2019-05-16T13:28:12.384Z,100199.55
2019-05-16T13:30:42.009Z,100199.73
2019-05-16T13:33:11.593Z,100194.91
2019-05-16T13:35:41.186Z,100188.61
2019-05-16T13:38:10.772Z,100188.56
2019-05-16T13:40:40.389Z,100180.21
2019-05-16T13:43:10.476Z,100180.00
2019-05-16T13:45:40.271Z,100172.86
2019-05-16T13:48:09.872Z,100181.12
2019-05-16T13:50:40.041Z,100173.86
2019-05-16T13:53:09.840Z,100171.23
2019-05-16T13:55:39.452Z,100167.43
2019-05-16T13:58:09.073Z,100173.95
2019-05-16T14:00:38.674Z,100176.77
2019-05-16T14:03:08.263Z,100173.16
2019-05-16T14:05:38.180Z,100172.53
2019-05-16T14:08:10.757Z,100174.02
2019-05-16T14:10:40.371Z,100169.33
2019-05-16T14:13:09.964Z,100167.03
2019-05-16T14:15:39.570Z,100172.42
2019-05-16T14:18:09.163Z,100164.20
2019-05-16T14:20:38.778Z,100160.67
2019-05-16T14:23:08.888Z,100170.44
2019-05-16T14:25:38.850Z,100174.80
2019-05-16T14:28:08.424Z,100166.67
2019-05-16T14:30:38.271Z,100172.09
2019-05-16T14:33:13.706Z,100169.13
2019-05-16T14:35:39.243Z,100164.41
2019-05-16T14:38:08.810Z,100160.06
2019-05-16T14:40:38.412Z,100154.00
2019-05-16T14:43:08.587Z,100155.64
2019-05-16T14:45:38.507Z,100156.26
2019-05-16T14:48:08.125Z,100151.14
2019-05-16T14:50:37.996Z,100154.39
2019-05-16T14:53:07.686Z,100151.44
2019-05-16T14:55:38.566Z,100152.81
2019-05-16T14:58:08.279Z,100153.91
2019-05-16T15:00:38.529Z,100152.48
2019-05-16T15:03:08.706Z,100153.52
2019-05-16T15:05:42.341Z,100163.25
2019-05-16T15:08:09.792Z,100160.53
2019-05-16T15:10:40.294Z,100162.97
2019-05-16T15:13:09.973Z,100166.65
2019-05-16T15:15:39.578Z,100159.47
2019-05-16T15:18:09.191Z,100159.80
2019-05-16T15:20:38.841Z,100159.05
2019-05-16T15:23:08.458Z,100155.59
2019-05-16T15:25:38.059Z,100151.83
2019-05-16T15:28:08.164Z,100152.69
2019-05-16T15:30:39.368Z,100152.75
2019-05-16T15:33:09.150Z,100151.15
2019-05-16T15:35:38.746Z,100147.95
2019-05-16T15:38:08.347Z,100147.09
2019-05-16T15:40:37.999Z,100147.28
2019-05-16T15:43:08.304Z,100144.01
2019-05-16T15:45:43.590Z,100141.38
2019-05-16T15:48:13.447Z,100146.24
2019-05-16T15:50:43.221Z,100139.17
2019-05-16T15:53:12.994Z,100135.33
2019-05-16T15:55:42.978Z,100140.34
2019-05-16T15:58:12.598Z,100138.70
2019-05-16T16:00:48.810Z,100137.92
2019-05-16T16:03:19.138Z,100134.44
2019-05-16T16:05:48.740Z,100127.44
2019-05-16T16:08:18.648Z,100123.59
2019-05-16T16:10:48.359Z,100125.75
2019-05-16T16:13:19.857Z,100125.76
2019-05-16T16:15:54.056Z,100127.50
2019-05-16T16:18:21.898Z,100117.55
2019-05-16T16:20:51.830Z,100118.51
2019-05-16T16:23:21.459Z,100116.98
2019-05-16T16:25:51.839Z,100117.30
2019-05-16T16:28:21.712Z,100114.87
2019-05-16T16:30:51.314Z,100120.28
2019-05-16T16:33:25.880Z,100119.49
2019-05-16T16:35:52.419Z,100115.73
2019-05-16T16:38:22.033Z,100114.72
2019-05-16T16:40:51.644Z,100119.42
2019-05-16T16:43:24.070Z,100119.42
2019-05-16T16:46:04.307Z,100120.29
2019-05-16T16:48:26.406Z,100128.23
2019-05-16T16:50:57.421Z,100124.25
2019-05-16T16:53:27.141Z,100128.00
2019-05-16T16:55:57.079Z,100134.98
2019-05-16T16:58:27.056Z,100131.47
2019-05-16T17:00:56.655Z,100142.00
2019-05-16T17:03:27.255Z,100137.20
2019-05-16T17:05:57.166Z,100135.98
2019-05-16T17:08:32.973Z,100143.31
2019-05-16T17:11:02.607Z,100145.19
2019-05-16T17:13:32.214Z,100141.70
2019-05-16T17:16:01.815Z,100149.25
2019-05-16T17:18:31.507Z,100154.67
2019-05-16T17:21:01.112Z,100154.98
2019-05-16T17:23:30.715Z,100147.70
2019-05-16T17:26:00.312Z,100148.00
2019-05-16T17:28:29.937Z,100147.23
2019-05-16T17:30:59.536Z,100147.80
2019-05-16T17:33:29.146Z,100147.78
2019-05-16T17:35:58.753Z,100147.52
2019-05-16T17:38:28.363Z,100156.41
2019-05-16T17:40:57.975Z,100154.78
2019-05-16T17:43:27.715Z,100151.56
2019-05-16T17:45:57.722Z,100149.16
2019-05-16T17:48:29.940Z,100148.64
2019-05-16T17:50:58.752Z,100148.36
2019-05-16T17:53:28.347Z,100148.66
2019-05-16T17:55:57.937Z,100145.95
2019-05-16T17:58:27.537Z,100144.34
2019-05-16T18:01:00.206Z,100142.16
2019-05-16T18:03:28.482Z,100142.44
2019-05-16T18:05:58.106Z,100143.73
2019-05-16T18:08:27.698Z,100140.78
2019-05-16T18:10:57.281Z,100145.08
2019-05-16T18:13:26.877Z,100144.23
2019-05-16T18:15:56.952Z,100149.34
2019-05-16T18:18:27.027Z,100145.01
2019-05-16T18:21:01.584Z,100146.61
2019-05-16T18:23:28.159Z,100146.09
2019-05-16T18:25:58.703Z,100147.13
2019-05-16T18:28:28.310Z,100140.95
2019-05-16T18:30:57.958Z,100139.87
2019-05-16T18:33:27.819Z,100133.67
2019-05-16T18:35:57.990Z,100139.06
2019-05-16T18:38:28.710Z,100137.71
2019-05-16T18:40:58.305Z,100147.70
2019-05-16T18:43:27.994Z,100148.50
2019-05-16T18:45:57.607Z,100149.06
2019-05-16T18:48:27.515Z,100149.05
2019-05-16T18:50:58.169Z,100151.45
2019-05-16T18:53:28.043Z,100146.08
2019-05-16T18:55:57.909Z,100148.80
2019-05-16T18:58:27.512Z,100143.41
2019-05-16T19:00:57.112Z,100150.70
2019-05-16T19:03:27.166Z,100140.71
2019-05-16T19:05:57.388Z,100153.13
2019-05-16T19:08:27.259Z,100152.59
2019-05-16T19:11:00.081Z,100148.54
2019-05-16T19:13:28.353Z,100156.34
2019-05-16T19:15:57.946Z,100153.38
2019-05-16T19:18:27.735Z,100156.63
2019-05-16T19:20:57.427Z,100157.42
2019-05-16T19:23:27.095Z,100160.41
2019-05-16T19:25:57.118Z,100157.47
2019-05-16T19:28:28.690Z,100158.02
2019-05-16T19:30:58.620Z,100162.89
2019-05-16T19:33:28.224Z,100157.50
2019-05-16T19:35:57.852Z,100156.70
2019-05-16T19:38:29.273Z,100160.19
2019-05-16T19:40:58.792Z,100159.12
2019-05-16T19:43:28.399Z,100158.30
2019-05-16T19:45:58.001Z,100164.23
2019-05-16T19:48:27.640Z,100163.41
2019-05-16T19:50:57.268Z,100163.14
2019-05-16T19:53:27.384Z,100161.54
2019-05-16T19:55:57.080Z,100163.42
2019-05-16T19:58:26.891Z,100156.98
2019-05-16T20:00:57.124Z,100153.48
2019-05-16T20:03:27.453Z,100152.42
2019-05-16T20:05:57.159Z,100153.77
2019-05-16T20:08:27.214Z,100152.67
2019-05-16T20:10:56.845Z,100153.75
2019-05-16T20:13:27.399Z,100148.67
2019-05-16T20:15:57.323Z,100151.63
2019-05-16T20:18:27.824Z,100147.34
2019-05-16T20:20:57.475Z,100151.87
2019-05-16T20:23:27.757Z,100142.97
2019-05-16T20:25:57.516Z,100145.91
2019-05-16T20:28:27.125Z,100143.73
2019-05-16T20:30:59.804Z,100139.68
2019-05-16T20:33:28.054Z,100141.79
2019-05-16T20:35:57.770Z,100140.12
2019-05-16T20:38:27.360Z,100137.20
2019-05-16T20:40:59.934Z,100142.31
2019-05-16T20:43:29.101Z,100137.76
2019-05-16T20:46:00.453Z,100136.16
2019-05-16T20:48:30.199Z,100132.38
2019-05-16T20:50:59.815Z,100131.01
2019-05-16T20:53:29.409Z,100134.45
2019-05-16T20:55:59.027Z,100137.92
2019-05-16T20:58:28.629Z,100131.73
2019-05-16T21:01:01.477Z,100136.28
2019-05-16T21:03:29.546Z,100127.92
2019-05-16T21:05:59.159Z,100128.18
2019-05-16T21:08:28.762Z,100127.31
2019-05-16T21:10:58.382Z,100122.98
2019-05-16T21:13:28.052Z,100117.80
2019-05-16T21:15:57.805Z,100117.78
2019-05-16T21:18:27.446Z,100120.95
2019-05-16T21:20:57.542Z,100114.22
2019-05-16T21:23:27.572Z,100114.44
2019-05-16T21:25:57.481Z,100114.17
2019-05-16T21:28:27.031Z,100110.65
2019-05-16T21:30:56.940Z,100107.09
2019-05-16T21:33:27.275Z,100112.70
2019-05-16T21:35:57.115Z,100110.73
2019-05-16T21:38:27.256Z,100106.66
2019-05-16T21:40:58.409Z,100113.04
2019-05-16T21:43:28.256Z,100111.43
2019-05-16T21:45:57.830Z,100109.83
2019-05-16T21:48:27.838Z,100103.36
2019-05-16T21:50:57.598Z,100105.47
2019-05-16T21:53:29.970Z,100101.95
2019-05-16T21:55:58.531Z,100106.48
2019-05-16T21:58:29.486Z,100099.73
2019-05-16T22:01:00.395Z,100102.47
2019-05-16T22:03:30.154Z,100112.31
2019-05-16T22:05:59.932Z,100112.31
2019-05-16T22:08:29.532Z,100107.20
2019-05-16T22:10:59.150Z,100105.59
2019-05-16T22:13:28.743Z,100106.66
2019-05-16T22:15:58.356Z,100106.95
2019-05-16T22:18:27.955Z,100102.46
2019-05-16T22:20:57.562Z,100099.05
2019-05-16T22:23:27.229Z,100103.14
2019-05-16T22:25:57.381Z,100106.46
2019-05-16T22:28:30.006Z,100105.75
2019-05-16T22:30:58.649Z,100106.33
2019-05-16T22:33:28.531Z,100111.23
2019-05-16T22:35:58.150Z,100104.58
2019-05-16T22:38:27.761Z,100108.13
2019-05-16T22:40:57.370Z,100106.53
2019-05-16T22:43:26.975Z,100109.82
2019-05-16T22:45:57.406Z,100105.02
2019-05-16T22:48:27.171Z,100107.73
2019-05-16T22:50:56.790Z,100101.05
2019-05-16T22:53:27.215Z,100097.84
2019-05-16T22:55:56.880Z,100097.03
2019-05-16T22:58:27.026Z,100097.59
2019-05-16T23:00:57.286Z,100102.17
2019-05-16T23:03:27.133Z,100104.08
2019-05-16T23:05:56.743Z,100096.30
2019-05-16T23:08:27.190Z,100094.17
2019-05-16T23:10:56.944Z,100089.88
2019-05-16T23:13:26.753Z,100088.01
2019-05-16T23:15:57.193Z,100090.17
2019-05-16T23:18:26.902Z,100090.43
2019-05-16T23:20:57.043Z,100089.89
2019-05-16T23:23:26.749Z,100083.17
2019-05-16T23:25:57.105Z,100087.50
2019-05-16T23:28:27.345Z,100084.00
2019-05-16T23:30:57.750Z,100077.55
2019-05-16T23:33:27.478Z,100077.49
2019-05-16T23:35:57.630Z,100075.34
2019-05-16T23:38:27.737Z,100073.38
2019-05-16T23:40:57.523Z,100069.83
2019-05-16T23:43:27.608Z,100070.80
2019-05-16T23:45:57.221Z,100066.17
2019-05-16T23:48:26.841Z,100068.02
2019-05-16T23:50:57.045Z,100050.78
2019-05-16T23:53:26.759Z,100058.78
2019-05-16T23:55:56.836Z,100056.83
2019-05-16T23:58:26.554Z,100050.87
